Time;durP1;ratioP1;P1;durP2;ratioP2;P2;SDS_P1;SDS_P2;PMS_P1;PMS_P2;Temp;Humidity;BMP_temperature;BMP_pressure;BME280_temperature;BME280_humidity;BME280_pressure;Samples;Min_cycle;Max_cycle;Signal;HPM_P1;HPM_P2
2020/12/17 00:00:52;;;;;;;132.83;57.97;;;;;;;6.97;74.52;101026.08;124442;1098;104612;-74
2020/12/17 00:03:20;;;;;;;137.03;58.73;;;;;;;6.98;74.88;101022.45;124479;1098;104481;-75
2020/12/17 00:05:49;;;;;;;146.83;61.63;;;;;;;6.98;74.09;101028.59;124415;1098;104510;-73
2020/12/17 00:08:18;;;;;;;115.23;52.80;;;;;;;6.98;75.43;101023.29;124462;1098;104667;-73
2020/12/17 00:10:47;;;;;;;113.67;52.73;;;;;;;6.99;74.31;101030.30;124403;1098;104527;-72
2020/12/17 00:13:15;;;;;;;125.90;58.13;;;;;;;6.99;74.46;101040.92;124435;1098;104632;-72
2020/12/17 00:15:43;;;;;;;125.10;57.57;;;;;;;6.97;74.18;101037.53;124399;1098;104516;-74
2020/12/17 00:18:11;;;;;;;141.57;61.00;;;;;;;6.96;75.55;101041.13;124382;1098;104970;-73
2020/12/17 00:20:39;;;;;;;144.07;64.07;;;;;;;6.93;74.28;101051.11;124418;1098;104549;-73
2020/12/17 00:23:08;;;;;;;155.43;68.93;;;;;;;6.91;75.11;101047.72;124413;1098;104568;-74
2020/12/17 00:25:36;;;;;;;131.87;57.60;;;;;;;6.88;74.53;101048.80;124458;1098;104718;-74
2020/12/17 00:28:04;;;;;;;127.45;60.15;;;;;;;6.89;75.30;101050.51;124446;1098;104571;-74
2020/12/17 00:30:32;;;;;;;130.73;62.03;;;;;;;6.91;74.77;101051.24;124392;1098;104615;-74
2020/12/17 00:33:01;;;;;;;143.15;62.60;;;;;;;6.95;75.02;101055.37;124411;1098;104523;-74
2020/12/17 00:35:29;;;;;;;148.17;65.67;;;;;;;6.99;74.98;101046.23;124403;1098;104526;-73
2020/12/17 00:37:57;;;;;;;152.03;65.77;;;;;;;7.00;74.85;101047.06;124425;1098;104704;-75
2020/12/17 00:40:25;;;;;;;154.40;68.30;;;;;;;7.00;74.24;101053.21;124425;1098;104603;-73
2020/12/17 00:42:53;;;;;;;120.87;55.40;;;;;;;7.01;75.05;101044.31;124394;1098;104535;-73
2020/12/17 00:45:22;;;;;;;122.80;55.17;;;;;;;7.02;74.38;101051.29;124420;1098;104583;-73
2020/12/17 00:47:50;;;;;;;127.53;58.80;;;;;;;7.02;74.43;101037.19;124473;1098;104702;-74
2020/12/17 00:50:18;;;;;;;129.57;56.03;;;;;;;7.02;74.89;101045.98;124473;1098;104932;-74
2020/12/17 00:52:46;;;;;;;127.40;60.40;;;;;;;7.04;75.09;101046.75;124415;1098;104625;-75
2020/12/17 00:55:15;;;;;;;135.13;59.17;;;;;;;7.08;74.66;101050.00;124395;1098;104887;-73
2020/12/17 00:57:43;;;;;;;128.77;57.60;;;;;;;7.08;73.97;101050.87;124441;1098;104581;-73
2020/12/17 01:00:11;;;;;;;102.90;47.13;;;;;;;7.07;74.03;101056.28;124399;1098;105063;-74
2020/12/17 01:02:39;;;;;;;93.47;45.13;;;;;;;7.03;74.10;101047.70;124431;1098;104523;-73
2020/12/17 01:05:08;;;;;;;109.43;48.77;;;;;;;7.03;75.04;101047.70;124401;1098;104490;-73
2020/12/17 01:07:36;;;;;;;104.70;47.93;;;;;;;7.03;75.22;101050.34;124473;1098;104707;-74
2020/12/17 01:10:05;;;;;;;110.53;51.80;;;;;;;7.05;75.30;101051.09;124405;1098;104597;-74
2020/12/17 01:12:33;;;;;;;102.77;46.57;;;;;;;7.07;75.24;101059.78;124359;1098;104509;-74
2020/12/17 01:15:02;;;;;;;101.27;47.73;;;;;;;7.07;73.96;101065.09;124392;1098;104526;-73
2020/12/17 01:17:30;;;;;;;87.03;41.20;;;;;;;7.06;74.72;101058.10;124558;1098;104705;-75
2020/12/17 01:19:58;;;;;;;88.90;42.60;;;;;;;7.06;74.34;101046.61;124425;1098;105045;-72
2020/12/17 01:22:26;;;;;;;99.77;45.23;;;;;;;7.07;75.21;101054.47;124436;1098;104526;-71
2020/12/17 01:24:54;;;;;;;103.47;47.40;;;;;;;7.08;74.84;101053.53;124430;1098;104589;-72
2020/12/17 01:27:23;;;;;;;109.53;50.33;;;;;;;7.10;74.75;101052.55;124471;1098;104597;-75
2020/12/17 01:29:51;;;;;;;110.47;49.97;;;;;;;7.10;74.33;101047.25;124412;1098;104575;-75
2020/12/17 01:32:20;;;;;;;109.47;48.50;;;;;;;7.09;74.85;101054.37;124400;1098;104593;-75
2020/12/17 01:34:48;;;;;;;107.97;48.10;;;;;;;7.05;74.04;101051.09;124429;1098;105000;-72
2020/12/17 01:37:16;;;;;;;86.40;40.77;;;;;;;7.00;74.12;101047.91;124444;1098;104763;-73
2020/12/17 01:39:44;;;;;;;82.40;38.83;;;;;;;7.00;74.78;101047.91;124393;1098;104571;-72
2020/12/17 01:42:13;;;;;;;83.03;40.43;;;;;;;7.01;73.88;101043.47;124443;1098;104600;-72
2020/12/17 01:44:43;;;;;;;89.57;42.70;;;;;;;7.02;74.40;101045.98;124507;1098;104596;-74
2020/12/17 01:47:11;;;;;;;98.87;44.80;;;;;;;7.02;74.38;101045.98;124541;1098;104608;-73
2020/12/17 01:49:40;;;;;;;97.33;42.70;;;;;;;7.02;74.27;101045.15;124475;1098;104696;-73
2020/12/17 01:52:08;;;;;;;92.97;42.97;;;;;;;7.02;74.76;101045.15;124517;1098;104731;-72
2020/12/17 01:54:37;;;;;;;82.90;38.87;;;;;;;6.97;74.10;101042.84;124484;1098;104609;-73
2020/12/17 01:57:06;;;;;;;75.47;36.57;;;;;;;6.95;74.22;101039.45;124391;1098;104656;-74
2020/12/17 01:59:47;;;;;;;82.90;39.03;;;;;;;6.94;74.03;101043.05;124461;1098;104571;-73
2020/12/17 02:02:17;;;;;;;90.63;41.23;;;;;;;6.95;74.23;101044.75;124457;1098;104596;-74
2020/12/17 02:04:46;;;;;;;90.73;40.87;;;;;;;6.96;74.48;101046.44;124503;1098;104947;-72
2020/12/17 02:07:15;;;;;;;84.17;39.67;;;;;;;6.96;73.91;101043.78;124449;1098;104644;-72
2020/12/17 02:09:44;;;;;;;97.30;41.10;;;;;;;6.96;74.32;101043.78;124437;1098;104594;-72
2020/12/17 02:12:12;;;;;;;71.50;34.20;;;;;;;6.94;74.96;101040.39;124432;1098;104520;-71
2020/12/17 02:14:40;;;;;;;70.20;35.07;;;;;;;6.94;73.83;101048.35;124403;1098;104596;-74
2020/12/17 02:17:08;;;;;;;73.20;35.30;;;;;;;6.95;73.77;101039.45;124418;1098;104679;-71
2020/12/17 02:19:36;;;;;;;77.10;35.50;;;;;;;6.94;73.95;101036.90;124424;1098;104543;-73
2020/12/17 02:22:05;;;;;;;75.73;34.90;;;;;;;6.93;74.90;101044.02;124298;1098;104565;-74
2020/12/17 02:24:33;;;;;;;88.40;40.93;;;;;;;6.92;74.47;101050.27;124437;1098;104712;-71
2020/12/17 02:27:01;;;;;;;79.77;38.83;;;;;;;6.92;74.66;101052.92;124438;1098;104689;-72
2020/12/17 02:29:29;;;;;;;63.37;32.70;;;;;;;6.91;74.86;101048.59;124403;1098;104530;-72
2020/12/17 02:31:57;;;;;;;60.93;31.13;;;;;;;6.90;74.04;101038.92;124336;1098;104549;-73
2020/12/17 02:34:26;;;;;;;65.00;32.75;;;;;;;6.91;73.79;101045.94;124431;1098;104573;-72
2020/12/17 02:36:54;;;;;;;71.33;35.80;;;;;;;6.92;74.99;101042.31;124450;1098;104586;-72
2020/12/17 02:39:22;;;;;;;69.17;33.50;;;;;;;6.92;74.88;101047.61;124389;1098;104513;-73
2020/12/17 02:41:50;;;;;;;66.37;34.00;;;;;;;6.94;73.95;101050.16;124484;1098;104533;-72
2020/12/17 02:44:18;;;;;;;66.13;33.73;;;;;;;6.93;73.83;101046.67;124391;1098;105091;-74
2020/12/17 02:46:46;;;;;;;65.47;32.20;;;;;;;6.90;74.83;101046.87;124509;1098;104685;-74
2020/12/17 02:49:15;;;;;;;56.47;29.60;;;;;;;6.87;74.65;101049.73;124465;1098;104540;-74
2020/12/17 02:51:43;;;;;;;55.43;28.17;;;;;;;6.86;74.85;101042.76;124425;1098;104513;-77
2020/12/17 02:54:11;;;;;;;58.73;29.97;;;;;;;6.85;74.95;101046.34;124481;1098;104568;-75
2020/12/17 02:56:39;;;;;;;63.60;31.05;;;;;;;6.88;74.93;101044.33;124472;1098;104657;-74
2020/12/17 02:59:07;;;;;;;64.97;30.90;;;;;;;6.90;74.33;101038.08;124421;1098;104565;-77
2020/12/17 03:01:35;;;;;;;68.07;32.83;;;;;;;6.85;74.85;101046.34;124455;1098;104513;-76
2020/12/17 03:04:04;;;;;;;63.53;31.40;;;;;;;6.81;74.83;101042.22;124482;1098;104486;-76
2020/12/17 03:06:32;;;;;;;57.57;29.07;;;;;;;6.78;75.19;101047.77;124409;1098;104675;-76
2020/12/17 03:09:00;;;;;;;56.80;27.73;;;;;;;6.77;74.21;101046.89;124483;1098;104583;-76
2020/12/17 03:11:28;;;;;;;57.47;28.70;;;;;;;6.76;73.76;101044.38;124431;1098;104591;-77
2020/12/17 03:13:56;;;;;;;59.60;29.30;;;;;;;6.74;74.06;101051.59;124432;1098;104513;-79
2020/12/17 03:16:25;;;;;;;60.50;30.20;;;;;;;6.73;75.04;101039.28;124488;1098;104679;-73
2020/12/17 03:18:55;;;;;;;63.07;31.10;;;;;;;6.72;75.04;101048.18;124482;1098;104601;-74
2020/12/17 03:21:24;;;;;;;64.10;31.95;;;;;;;6.74;74.93;101046.30;124448;1098;104593;-74
2020/12/17 03:23:52;;;;;;;52.50;26.90;;;;;;;6.70;75.15;101045.66;124412;1098;104519;-74
2020/12/17 03:26:20;;;;;;;49.95;25.40;;;;;;;6.73;74.50;101047.23;124472;1098;104596;-77
2020/12/17 03:28:49;;;;;;;55.17;28.43;;;;;;;6.72;73.86;101048.18;124424;1098;104552;-75
2020/12/17 03:31:18;;;;;;;57.03;28.40;;;;;;;6.74;73.83;101040.98;124406;1098;104500;-73
2020/12/17 03:33:46;;;;;;;58.20;28.90;;;;;;;6.75;74.93;101040.85;124389;1098;104606;-73
2020/12/17 03:36:14;;;;;;;56.87;29.20;;;;;;;6.76;74.21;101044.38;124533;1098;104654;-73
2020/12/17 03:38:43;;;;;;;59.87;29.53;;;;;;;6.76;74.54;101044.38;124409;1098;104583;-75
2020/12/17 03:41:11;;;;;;;78.43;47.17;;;;;;;6.72;74.17;101045.53;124405;1098;104509;-73
2020/12/17 03:43:39;;;;;;;136.40;87.73;;;;;;;6.74;74.95;101056.91;124618;1098;104631;-75
2020/12/17 03:46:07;;;;;;;200.17;118.57;;;;;;;6.73;74.09;101052.54;124426;1098;104705;-75
2020/12/17 03:48:35;;;;;;;550.43;336.23;;;;;;;6.72;74.17;101054.35;124399;1098;104594;-72
2020/12/17 03:51:04;;;;;;;891.93;572.37;;;;;;;6.70;74.01;101056.27;124486;1098;104509;-71
2020/12/17 03:53:33;;;;;;;933.13;596.67;;;;;;;6.71;74.15;101057.11;124470;1098;104945;-73
2020/12/17 03:56:02;;;;;;;417.07;214.80;;;;;;;6.67;74.71;101054.66;124408;1098;104660;-74
2020/12/17 03:58:30;;;;;;;639.23;451.63;;;;;;;6.64;74.20;101052.24;124377;1098;104952;-73
2020/12/17 04:00:58;;;;;;;638.63;440.27;;;;;;;6.65;74.83;101045.97;124517;1098;104568;-73
2020/12/17 04:03:26;;;;;;;231.87;99.90;;;;;;;6.66;74.72;101045.02;124462;1098;104603;-71
2020/12/17 04:05:54;;;;;;;320.50;191.80;;;;;;;6.65;75.29;101045.97;124479;1098;104625;-75
2020/12/17 04:08:23;;;;;;;260.55;151.60;;;;;;;6.69;74.23;101050.09;124537;1098;104570;-72
2020/12/17 04:10:51;;;;;;;370.40;238.45;;;;;;;6.70;73.85;101045.66;124649;1098;104534;-74
2020/12/17 04:13:19;;;;;;;196.83;108.33;;;;;;;6.69;74.23;101050.09;124482;1098;104506;-74
2020/12/17 04:15:47;;;;;;;421.90;328.30;;;;;;;6.66;75.06;101047.67;124492;1098;104698;-72
2020/12/17 04:18:15;;;;;;;246.00;152.33;;;;;;;6.67;74.89;101046.70;124633;1098;104596;-73
2020/12/17 04:20:43;;;;;;;136.40;78.00;;;;;;;6.68;74.77;101043.11;124420;1098;104926;-74
2020/12/17 04:23:12;;;;;;;140.20;88.40;;;;;;;6.68;75.00;101051.06;124469;1098;104487;-74
2020/12/17 04:25:40;;;;;;;274.93;196.73;;;;;;;6.69;74.28;101052.74;124490;1098;104592;-75
2020/12/17 04:28:08;;;;;;;309.90;231.00;;;;;;;6.69;75.32;101049.25;124455;1098;104517;-74
2020/12/17 04:30:36;;;;;;;153.47;97.03;;;;;;;6.66;74.30;101060.94;124482;1098;104996;-74
2020/12/17 04:33:04;;;;;;;274.60;213.53;;;;;;;6.64;74.96;101052.24;124509;1098;104509;-74
2020/12/17 04:35:32;;;;;;;211.95;145.35;;;;;;;6.61;74.00;101056.91;124517;1098;104921;-75
2020/12/17 04:38:01;;;;;;;152.67;98.37;;;;;;;6.60;74.31;101050.77;124418;1098;104714;-75
2020/12/17 04:40:29;;;;;;;97.65;57.05;;;;;;;6.59;74.89;101058.82;124448;1098;104871;-73
2020/12/17 04:42:57;;;;;;;131.50;84.00;;;;;;;6.59;73.93;101054.36;124480;1098;104509;-74
2020/12/17 04:45:26;;;;;;;129.73;84.73;;;;;;;6.59;75.37;101054.36;124582;1098;104604;-76
2020/12/17 04:47:57;;;;;;;126.63;80.27;;;;;;;6.61;73.95;101056.91;124524;1098;104970;-74
2020/12/17 04:50:27;;;;;;;104.30;71.28;;;;;;;6.54;74.78;101061.78;124483;1098;104968;-73
2020/12/17 04:52:58;;;;;;;58.83;35.33;;;;;;;6.49;75.05;101061.27;124447;1098;104519;-73
2020/12/17 04:55:28;;;;;;;56.55;33.95;;;;;;;6.49;74.44;101061.27;124480;1098;104984;-73
2020/12/17 04:57:59;;;;;;;69.60;46.00;;;;;;;6.49;75.12;101054.16;124448;1098;104593;-73
2020/12/17 05:00:28;;;;;;;85.30;54.90;;;;;;;6.48;75.52;101064.86;124546;1098;104586;-75
2020/12/17 05:03:04;;;;;;;108.07;71.43;;;;;;;6.48;74.34;101065.70;124402;1098;104560;-73
2020/12/17 05:05:32;;;;;;;66.47;38.37;;;;;;;6.48;75.17;101055.09;124468;1098;104656;-74
2020/12/17 05:08:01;;;;;;;82.87;52.37;;;;;;;6.48;75.47;101059.56;124478;1098;104685;-73
2020/12/17 05:10:29;;;;;;;75.27;44.23;;;;;;;6.46;75.51;101062.31;124466;1098;104506;-79
2020/12/17 05:12:58;;;;;;;77.60;44.23;;;;;;;6.45;74.50;101057.14;124442;1098;104568;-75
2020/12/17 05:15:26;;;;;;;98.53;62.70;;;;;;;6.46;74.73;101051.70;124556;1098;104640;-74
2020/12/17 05:17:55;;;;;;;89.15;51.50;;;;;;;6.46;74.51;101058.82;124510;1098;104618;-75
2020/12/17 05:20:26;;;;;;;116.23;81.90;;;;;;;6.44;74.63;101053.62;124540;1098;104516;-75
2020/12/17 05:22:56;;;;;;;75.75;46.00;;;;;;;6.43;74.43;101059.05;124542;1098;104557;-74
2020/12/17 05:25:24;;;;;;;55.80;32.65;;;;;;;6.42;75.25;101067.95;124552;1098;104657;-73
2020/12/17 05:27:52;;;;;;;72.90;50.00;;;;;;;6.41;74.91;101066.23;124437;1098;104564;-76
2020/12/17 05:30:21;;;;;;;53.00;29.07;;;;;;;6.42;75.36;101062.64;124471;1098;104593;-74
2020/12/17 05:32:49;;;;;;;56.57;35.10;;;;;;;6.47;74.54;101065.83;124434;1098;104567;-73
2020/12/17 05:35:17;;;;;;;49.63;29.63;;;;;;;6.49;74.51;101063.92;124537;1098;104935;-74
2020/12/17 05:37:46;;;;;;;87.73;65.37;;;;;;;6.49;75.27;101055.97;124402;1098;104627;-72
2020/12/17 05:40:15;;;;;;;57.77;35.23;;;;;;;6.50;74.44;101062.95;124515;1098;104509;-74
2020/12/17 05:42:44;;;;;;;42.90;25.13;;;;;;;6.48;75.67;101057.75;124442;1098;104679;-74
2020/12/17 05:45:29;;;;;;;41.37;24.80;;;;;;;6.49;74.53;101055.97;124506;1098;104692;-74
2020/12/17 05:48:15;;;;;;;41.23;26.33;;;;;;;6.49;74.50;101054.16;124400;1098;104551;-74
2020/12/17 05:50:55;;;;;;;39.85;27.10;;;;;;;6.47;75.08;101053.42;124489;1098;104592;-74
2020/12/17 05:53:25;;;;;;;43.40;30.25;;;;;;;6.47;74.99;101049.93;124503;1098;104504;-74
2020/12/17 05:56:02;;;;;;;41.40;25.97;;;;;;;6.47;75.62;101040.16;124517;1098;105031;-76
2020/12/17 05:58:41;;;;;;;40.83;25.37;;;;;;;6.49;75.57;101042.71;124500;1098;104595;-74
2020/12/17 06:01:12;;;;;;;31.27;18.43;;;;;;;6.48;75.10;101046.30;124490;1098;104599;-75
2020/12/17 06:03:41;;;;;;;30.55;18.17;;;;;;;6.49;75.48;101053.32;124511;1098;104516;-76
2020/12/17 06:06:10;;;;;;;37.77;24.50;;;;;;;6.47;75.28;101060.53;124671;1098;104962;-74
2020/12/17 06:08:40;;;;;;;34.50;20.67;;;;;;;6.50;75.69;101055.00;124475;1098;104525;-74
2020/12/17 06:11:11;;;;;;;32.83;19.67;;;;;;;6.53;75.29;101054.80;124492;1098;104507;-74
2020/12/17 06:13:40;;;;;;;38.83;23.47;;;;;;;6.55;74.90;101054.69;124495;1090;104602;-74
2020/12/17 06:16:10;;;;;;;39.83;25.17;;;;;;;6.56;75.33;101059.86;124589;1098;104589;-74
2020/12/17 06:18:47;;;;;;;35.60;20.60;;;;;;;6.57;75.64;101060.73;124485;1090;104512;-74
2020/12/17 06:21:16;;;;;;;30.00;18.17;;;;;;;6.55;74.74;101058.19;124526;1098;104509;-75
2020/12/17 06:23:44;;;;;;;31.23;20.10;;;;;;;6.49;75.39;101055.97;124516;1098;104605;-75
2020/12/17 06:26:13;;;;;;;40.40;28.07;;;;;;;6.52;74.54;101047.78;124560;1098;104666;-74
2020/12/17 06:28:47;;;;;;;38.67;22.70;;;;;;;6.53;74.53;101065.41;124481;1098;104649;-76
2020/12/17 06:31:20;;;;;;;37.27;24.23;;;;;;;6.53;74.50;101065.41;124558;1090;104509;-73
2020/12/17 06:33:48;;;;;;;38.23;25.90;;;;;;;6.49;74.31;101063.92;124545;1090;104509;-74
2020/12/17 06:36:34;;;;;;;29.50;18.53;;;;;;;6.50;74.50;101065.60;124513;1098;104647;-73
2020/12/17 06:39:06;;;;;;;28.97;18.43;;;;;;;6.50;74.48;101062.95;124554;1098;104602;-74
2020/12/17 06:41:34;;;;;;;40.33;28.83;;;;;;;6.50;74.40;101073.56;124516;1098;104510;-76
2020/12/17 06:44:26;;;;;;;429.60;375.93;;;;;;;6.53;75.32;101070.70;124482;1098;104516;-74
2020/12/17 06:46:57;;;;;;;94.73;62.07;;;;;;;6.55;75.24;101071.45;124544;1098;104510;-74
2020/12/17 06:49:27;;;;;;;282.47;186.57;;;;;;;6.58;74.59;101068.59;124595;1098;104507;-74
2020/12/17 06:52:15;;;;;;;95.80;55.80;;;;;;;6.58;74.57;101073.02;124476;1098;104535;-75
2020/12/17 06:54:44;;;;;;;202.03;112.77;;;;;;;6.59;74.14;101075.58;124413;1098;104907;-74
2020/12/17 06:57:14;;;;;;;212.30;128.50;;;;;;;6.58;74.41;101073.89;124520;1098;104640;-75
2020/12/17 06:59:43;;;;;;;406.90;271.75;;;;;;;6.58;75.21;101073.89;124442;1098;104507;-74
2020/12/17 07:02:15;;;;;;;193.50;107.47;;;;;;;6.60;75.20;101069.33;124590;1098;104593;-74
2020/12/17 07:04:45;;;;;;;288.20;182.20;;;;;;;6.62;74.15;101067.42;124647;1098;104583;-74
2020/12/17 07:07:20;;;;;;;135.10;81.80;;;;;;;6.61;75.07;101072.82;124590;1098;104672;-74
2020/12/17 07:09:50;;;;;;;116.13;76.37;;;;;;;6.64;75.50;101073.45;124555;1098;104512;-74
2020/12/17 07:12:42;;;;;;;102.13;70.97;;;;;;;6.64;75.10;101078.77;124603;1098;104608;-73
2020/12/17 07:15:33;;;;;;;82.43;53.60;;;;;;;6.66;75.23;101076.01;124534;1098;104946;-74
2020/12/17 07:18:23;;;;;;;61.73;39.83;;;;;;;6.66;75.09;101082.16;124577;1098;104595;-74
2020/12/17 07:20:54;;;;;;;58.83;36.83;;;;;;;6.69;74.70;101075.77;124558;1098;104960;-73
2020/12/17 07:23:23;;;;;;;55.10;34.27;;;;;;;6.73;74.64;101087.02;124515;1098;104561;-73
2020/12/17 07:25:52;;;;;;;52.70;35.60;;;;;;;6.74;75.20;101076.31;124508;1098;104560;-73
2020/12/17 07:28:26;;;;;;;55.07;37.50;;;;;;;6.75;75.19;101077.98;124516;1098;104631;-74
2020/12/17 07:30:57;;;;;;;43.63;30.13;;;;;;;6.77;74.37;101083.19;124516;1098;104570;-74
2020/12/17 07:33:48;;;;;;;60.37;43.80;;;;;;;6.77;75.12;101080.54;124474;1098;104519;-74
2020/12/17 07:36:17;;;;;;;53.48;37.75;;;;;;;6.80;75.23;101083.83;124479;1093;104583;-74
2020/12/17 07:38:45;;;;;;;72.20;54.63;;;;;;;6.82;73.98;101073.11;124499;1098;104616;-75
2020/12/17 07:41:27;;;;;;;90.70;62.43;;;;;;;6.80;74.07;101083.83;124542;1098;104532;-73
2020/12/17 07:43:56;;;;;;;72.23;52.00;;;;;;;6.77;74.73;101072.58;124428;1098;104496;-74
2020/12/17 07:46:44;;;;;;;81.47;61.80;;;;;;;6.78;74.37;101076.95;124513;1098;105016;-74
2020/12/17 07:49:24;;;;;;;51.05;35.40;;;;;;;6.77;75.13;101076.08;124492;1090;104570;-73
2020/12/17 07:51:52;;;;;;;43.77;29.10;;;;;;;6.77;74.84;101078.73;124555;1098;104621;-73
2020/12/17 07:54:21;;;;;;;49.63;35.50;;;;;;;6.77;74.40;101084.03;124511;1098;104900;-74
2020/12/17 07:56:59;;;;;;;39.63;26.53;;;;;;;6.76;74.28;101078.86;124540;1090;104573;-73
2020/12/17 07:59:27;;;;;;;55.45;37.80;;;;;;;6.76;75.15;101081.52;124535;1090;105046;-74
2020/12/17 08:01:59;;;;;;;45.43;29.07;;;;;;;6.76;75.39;101073.55;124558;1098;104572;-75
2020/12/17 08:04:27;;;;;;;63.93;42.17;;;;;;;6.77;74.08;101075.23;124519;1090;104596;-74
2020/12/17 08:06:55;;;;;;;46.03;30.07;;;;;;;6.77;74.26;101072.58;124496;1098;104927;-73
2020/12/17 08:09:24;;;;;;;67.87;42.87;;;;;;;6.74;74.76;101078.13;124590;1098;104609;-75
2020/12/17 08:11:56;;;;;;;105.63;71.00;;;;;;;6.75;75.58;101085.11;124409;1098;104525;-72
2020/12/17 08:14:25;;;;;;;87.70;58.35;;;;;;;6.76;74.40;101076.20;124522;1098;104561;-73
2020/12/17 08:17:03;;;;;;;57.20;36.00;;;;;;;6.80;74.40;101088.30;124490;1090;104484;-74
2020/12/17 08:19:31;;;;;;;73.35;50.55;;;;;;;6.81;74.76;101085.54;124507;1098;104660;-73
2020/12/17 08:22:01;;;;;;;46.17;28.60;;;;;;;6.86;75.09;101082.55;124392;1098;104693;-74
2020/12/17 08:24:32;;;;;;;36.43;22.33;;;;;;;6.86;74.77;101080.73;124346;1098;104550;-75
2020/12/17 08:27:00;;;;;;;34.17;21.43;;;;;;;6.85;74.30;101086.14;124265;1098;104598;-73
2020/12/17 08:29:31;;;;;;;49.23;33.47;;;;;;;6.84;74.68;101085.30;124536;1098;104515;-73
2020/12/17 08:32:01;;;;;;;49.50;31.40;;;;;;;6.91;75.22;101087.52;124660;1090;104541;-73
2020/12/17 08:34:29;;;;;;;45.55;26.00;;;;;;;6.95;74.25;101092.52;124574;1090;104518;-70
2020/12/17 08:36:57;;;;;;;57.13;32.43;;;;;;;6.97;74.05;101085.29;124402;1098;104625;-74
2020/12/17 08:39:26;;;;;;;69.13;42.83;;;;;;;6.97;74.09;101087.10;124636;1098;104525;-73
2020/12/17 08:41:56;;;;;;;59.00;36.60;;;;;;;6.96;74.11;101085.39;124476;1098;104595;-72
2020/12/17 08:44:28;;;;;;;49.30;30.00;;;;;;;6.99;74.34;101087.84;124530;1098;104595;-74
2020/12/17 08:46:59;;;;;;;65.73;43.43;;;;;;;7.02;74.92;101096.41;124420;1098;104978;-73
2020/12/17 08:49:30;;;;;;;60.05;38.85;;;;;;;7.03;74.36;101092.81;124547;1098;104707;-74
2020/12/17 08:51:59;;;;;;;53.00;30.05;;;;;;;7.08;75.16;101098.64;124494;1098;104500;-74
2020/12/17 08:54:30;;;;;;;53.30;33.70;;;;;;;7.16;75.00;101099.88;124532;1098;104500;-75
2020/12/17 08:57:04;;;;;;;50.80;31.73;;;;;;;7.21;73.89;101095.94;124474;1098;104599;-73
2020/12/17 08:59:32;;;;;;;48.67;32.03;;;;;;;7.20;74.32;101099.56;124577;1098;104696;-73
2020/12/17 09:02:01;;;;;;;45.83;28.20;;;;;;;7.19;75.12;101102.32;124457;1098;104561;-75
2020/12/17 09:04:29;;;;;;;47.15;29.65;;;;;;;7.19;74.26;101099.67;124447;1098;105041;-73
2020/12/17 09:06:59;;;;;;;47.50;29.40;;;;;;;7.25;74.51;101097.41;124484;1098;104490;-74
2020/12/17 09:09:29;;;;;;;41.80;23.00;;;;;;;7.32;74.83;101097.83;124520;1098;104679;-73
2020/12/17 09:11:59;;;;;;;46.33;27.80;;;;;;;7.33;73.81;101096.85;124512;1098;104599;-74
2020/12/17 09:14:30;;;;;;;42.37;25.43;;;;;;;7.35;74.32;101100.27;124426;1098;104525;-73
2020/12/17 09:17:09;;;;;;;41.88;25.72;;;;;;;7.31;74.44;101093.46;124512;1098;104512;-75
2020/12/17 09:19:37;;;;;;;41.47;24.27;;;;;;;7.31;74.81;101101.42;124521;1098;104647;-74
2020/12/17 09:22:05;;;;;;;41.63;25.27;;;;;;;7.30;74.10;101099.75;124424;1098;104571;-75
2020/12/17 09:24:34;;;;;;;43.60;25.90;;;;;;;7.32;75.07;101095.17;124499;1098;105067;-73
2020/12/17 09:27:20;;;;;;;48.17;29.70;;;;;;;7.36;73.77;101099.30;124460;1098;104650;-75
2020/12/17 09:30:05;;;;;;;66.37;39.40;;;;;;;7.41;73.87;101101.60;124526;1098;104602;-75
2020/12/17 09:32:35;;;;;;;87.13;48.17;;;;;;;7.44;73.84;101091.61;124474;1098;104666;-74
2020/12/17 09:35:08;;;;;;;142.10;84.80;;;;;;;7.41;74.33;101093.64;124437;1098;104509;-73
2020/12/17 09:37:37;;;;;;;176.25;105.50;;;;;;;7.37;74.09;101098.35;124457;1098;104526;-72
2020/12/17 09:40:08;;;;;;;73.60;40.00;;;;;;;7.40;73.84;101097.27;124558;1098;104724;-74
2020/12/17 09:42:37;;;;;;;170.00;102.50;;;;;;;7.45;74.32;101089.83;124532;1098;104577;-73
2020/12/17 09:45:17;;;;;;;105.80;64.07;;;;;;;7.51;74.23;101088.53;124522;1098;104590;-73
2020/12/17 09:47:45;;;;;;;139.73;88.60;;;;;;;7.57;73.98;101077.45;124533;1098;104532;-73
2020/12/17 09:50:16;;;;;;;71.27;41.80;;;;;;;7.58;74.35;101087.09;124590;1098;104707;-74
2020/12/17 09:52:45;;;;;;;58.37;34.17;;;;;;;7.59;73.89;101081.67;124518;1098;104487;-75
2020/12/17 09:55:14;;;;;;;165.33;113.13;;;;;;;7.59;74.09;101079.02;124610;1098;104596;-74
2020/12/17 09:57:44;;;;;;;145.20;94.23;;;;;;;7.62;74.08;101081.46;124500;1098;105015;-74
2020/12/17 10:00:14;;;;;;;145.83;93.07;;;;;;;7.63;74.53;101083.14;124536;1098;104634;-73
2020/12/17 10:02:43;;;;;;;71.05;41.05;;;;;;;7.65;73.83;101075.06;124478;1098;104507;-74
2020/12/17 10:05:12;;;;;;;73.33;46.70;;;;;;;7.61;73.89;101078.91;124578;1098;104526;-73
2020/12/17 10:07:46;;;;;;;123.20;84.10;;;;;;;7.62;73.64;101080.59;124541;1098;104560;-73
2020/12/17 10:10:14;;;;;;;60.43;37.40;;;;;;;7.64;73.72;101073.35;124504;1098;104597;-73
2020/12/17 10:12:43;;;;;;;110.47;77.67;;;;;;;7.67;74.06;101070.48;124515;1098;104522;-74
2020/12/17 10:15:11;;;;;;;60.47;35.37;;;;;;;7.67;73.36;101078.45;124566;1098;104513;-74
2020/12/17 10:17:39;;;;;;;59.15;34.90;;;;;;;7.68;73.60;101072.19;124450;1098;104506;-73
2020/12/17 10:20:10;;;;;;;96.57;57.17;;;;;;;7.69;73.49;101068.56;124541;1098;104637;-73
2020/12/17 10:22:38;;;;;;;173.27;111.47;;;;;;;7.75;73.81;101075.22;124514;1098;104525;-74
2020/12/17 10:25:06;;;;;;;81.45;47.00;;;;;;;7.80;73.69;101068.61;124558;1098;104516;-73
2020/12/17 10:27:35;;;;;;;108.17;63.63;;;;;;;7.86;74.13;101067.30;124489;1098;104624;-74
2020/12/17 10:30:03;;;;;;;107.65;63.55;;;;;;;7.86;73.27;101060.16;124516;1098;105009;-74
2020/12/17 10:32:32;;;;;;;98.23;53.13;;;;;;;7.82;73.66;101060.53;124433;1098;104574;-73
2020/12/17 10:35:00;;;;;;;86.73;51.70;;;;;;;7.76;73.43;101056.52;124414;1098;104599;-73
2020/12/17 10:37:28;;;;;;;95.93;59.30;;;;;;;7.71;73.34;101063.14;124407;1098;104602;-72
2020/12/17 10:39:56;;;;;;;224.37;156.77;;;;;;;7.68;74.16;101056.25;124485;1098;104513;-72
2020/12/17 10:42:25;;;;;;;101.40;68.77;;;;;;;7.70;73.46;101061.42;124441;1098;104695;-75
2020/12/17 10:44:53;;;;;;;123.00;88.23;;;;;;;7.77;73.81;101060.02;124426;1098;104599;-75
2020/12/17 10:47:21;;;;;;;132.67;94.03;;;;;;;7.76;73.46;101059.17;124390;1098;104557;-73
2020/12/17 10:49:49;;;;;;;119.80;84.10;;;;;;;7.70;73.53;101056.11;124457;1098;104503;-75
2020/12/17 10:52:18;;;;;;;80.07;48.80;;;;;;;7.69;73.86;101054.44;124429;1098;104694;-73
2020/12/17 10:54:46;;;;;;;73.93;48.17;;;;;;;7.67;73.44;101052.73;124386;1098;104643;-74
2020/12/17 10:57:14;;;;;;;81.57;52.83;;;;;;;7.70;74.05;101054.33;124448;1098;104587;-74
2020/12/17 10:59:43;;;;;;;72.15;43.15;;;;;;;7.71;73.73;101053.34;124487;1098;104694;-74
2020/12/17 11:02:11;;;;;;;77.03;43.43;;;;;;;7.71;73.22;101042.72;124589;1090;104664;-72
2020/12/17 11:04:40;;;;;;;54.43;32.43;;;;;;;7.68;73.98;101048.28;124390;1098;104583;-73
2020/12/17 11:07:08;;;;;;;79.67;50.67;;;;;;;7.64;73.64;101042.34;124459;1098;104594;-74
2020/12/17 11:09:36;;;;;;;59.90;36.70;;;;;;;7.60;73.17;101034.70;124450;1098;104490;-73